»·PEaware :: SKW3551 KSAN-KLAS

SKW3551 :: KSAN-KLAS

FLIGHT INFORMATION

Flight Status: Arrived
Operator:
SkyWest Airlines
More flights by this operator :: More flights under this callsign
Pilot: Chris O. (30060)
Aircraft: EMBRAER EMB-170/175
(E170)
More flights by this aircraft type
Origin: KSAN San Diego Intl-Lindbergh
United States
Destination: KLAS Harry Reid Intl
United States
More flights between these airports :: More routes between these airports
Route: PADRZ2 CHKNN SEBBY YELAH MISEN RNDRZ2
File this flight plan on PilotEdge
Remarks: RMK / SIMBRIEF
Altitude:
(Current/Filed)
27,000ft
Speed:
(Current/Filed)
419kts
Departed: 18-Jun-22 12:59 PM
Arrived: 18-Jun-22 01:50 PM
Distance/Time
Traveled:
225nm/0:51
Distance/Time
To Go:
Arrived

Flight Plot

Page will automatically refresh every two minutes.

Flight plan parsing failed; only flown route is shown


Map Options




Map Legend


Flown Route
Filed Route
Departure Airport
Arrival Airport
Navaid (VOR, NDB)
Fix

Horizontal Profiles

Position Reports

Time Latitude Longitude Heading Altitude Ground
Speed
18-Jun-22 12:36 32.733043 -117.197900 300 24ft 0kts
18-Jun-22 12:37 32.733043 -117.197900 300 24ft 0kts
18-Jun-22 12:38 32.733043 -117.197900 300 24ft 0kts
18-Jun-22 12:39 32.733043 -117.197900 300 24ft 0kts
18-Jun-22 12:40 32.733043 -117.197900 300 24ft 0kts
18-Jun-22 12:42 32.733043 -117.197900 300 24ft 0kts
18-Jun-22 12:43 32.733043 -117.197900 300 24ft 0kts
18-Jun-22 12:44 32.733043 -117.197900 300 24ft 0kts
18-Jun-22 12:45 32.733043 -117.197900 300 24ft 0kts
18-Jun-22 12:46 32.733043 -117.197900 300 24ft 0kts
18-Jun-22 12:47 32.733043 -117.197900 300 24ft 0kts
18-Jun-22 12:48 32.733043 -117.197900 300 24ft 0kts
18-Jun-22 12:49 32.733043 -117.197900 300 24ft 0kts
18-Jun-22 12:50 32.733033 -117.197850 252 24ft 0kts
18-Jun-22 12:51 32.733224 -117.197349 293 24ft 0kts
18-Jun-22 12:52 32.733109 -117.197324 21 24ft 0kts
18-Jun-22 12:53 32.733491 -117.197163 18 24ft 7kts
18-Jun-22 12:54 32.733802 -117.197056 18 24ft 7kts
18-Jun-22 12:55 32.733793 -117.194883 109 24ft 8kts
18-Jun-22 12:56 32.732604 -117.190011 107 24ft 26kts
18-Jun-22 12:57 32.730110 -117.179749 104 24ft 30kts
18-Jun-22 12:58 32.729643 -117.177321 77 24ft 0kts
18-Jun-22 12:59 32.730899 -117.179023 282 24ft 62kts
18-Jun-22 13:00 32.746014 -117.232788 294 1615ft 203kts
18-Jun-22 13:01 32.790046 -117.290425 301 4129ft 255kts
18-Jun-22 13:02 32.831783 -117.361607 301 6669ft 273kts
18-Jun-22 13:03 32.882660 -117.431282 307 7954ft 280kts
18-Jun-22 13:04 32.934421 -117.500069 307 7960ft 279kts
18-Jun-22 13:05 32.983830 -117.571401 301 10121ft 284kts
18-Jun-22 13:05 33.024522 -117.640186 301 12719ft 345kts
18-Jun-22 13:07 33.102348 -117.746221 316 16297ft 388kts
18-Jun-22 13:08 33.188558 -117.827718 316 19319ft 406kts
18-Jun-22 13:09 33.279747 -117.911666 316 22341ft 425kts
18-Jun-22 13:10 33.376024 -117.998307 316 25355ft 447kts
18-Jun-22 13:10 33.455741 -118.069351 311 26968ft 406kts
18-Jun-22 13:11 33.544053 -118.160398 311 26991ft 442kts
18-Jun-22 13:12 33.640833 -118.250940 327 26996ft 457kts
18-Jun-22 13:14 33.792228 -118.261854 13 26995ft 496kts
18-Jun-22 13:14 33.876590 -118.170629 56 26995ft 507kts
18-Jun-22 13:15 33.960830 -118.034955 51 26982ft 507kts
18-Jun-22 13:17 34.063063 -117.879821 51 27000ft 507kts
18-Jun-22 13:17 34.136098 -117.768828 51 26995ft 508kts
18-Jun-22 13:18 34.224285 -117.634824 51 26992ft 508kts
18-Jun-22 13:20 34.326682 -117.478806 51 26987ft 508kts
18-Jun-22 13:20 34.399873 -117.367434 51 26996ft 509kts
18-Jun-22 13:21 34.487624 -117.233941 51 26985ft 509kts
18-Jun-22 13:22 34.575796 -117.099815 51 26985ft 510kts
18-Jun-22 13:23 34.665531 -116.965177 51 26935ft 517kts
18-Jun-22 13:24 34.753125 -116.825465 56 26896ft 520kts
18-Jun-22 13:25 34.835163 -116.686992 51 26274ft 483kts
18-Jun-22 13:26 34.934626 -116.576063 41 25037ft 504kts
18-Jun-22 13:27 35.040467 -116.466084 41 23930ft 492kts
18-Jun-22 13:28 35.143376 -116.354675 45 23639ft 497kts
18-Jun-22 13:29 35.238526 -116.239217 51 21724ft 470kts
18-Jun-22 13:30 35.323042 -116.120749 51 19695ft 452kts
18-Jun-22 13:31 35.403468 -116.006826 51 18374ft 440kts
18-Jun-22 13:32 35.482348 -115.894310 51 17336ft 430kts
18-Jun-22 13:33 35.559364 -115.783702 51 15922ft 419kts
18-Jun-22 13:34 35.635271 -115.679017 46 14222ft 405kts
18-Jun-22 13:35 35.712948 -115.582472 46 12916ft 390kts
18-Jun-22 13:36 35.789548 -115.486886 46 12902ft 393kts
18-Jun-22 13:37 35.883968 -115.424531 15 12415ft 386kts
18-Jun-22 13:38 35.981943 -115.380984 24 11427ft 323kts
18-Jun-22 13:39 36.024509 -115.295479 95 10713ft 315kts
18-Jun-22 13:40 36.017517 -115.190756 98 9364ft 279kts
18-Jun-22 13:41 36.011665 -115.102628 101 8881ft 254kts
18-Jun-22 13:42 36.006231 -115.015668 101 8364ft 248kts
18-Jun-22 13:43 36.003249 -114.931035 97 7113ft 246kts
18-Jun-22 13:44 36.056291 -114.910307 306 5691ft 217kts
18-Jun-22 13:45 36.076978 -114.966019 266 4800ft 174kts
18-Jun-22 13:46 36.076857 -115.024175 259 3954ft 161kts
18-Jun-22 13:47 36.073879 -115.078408 265 2844ft 150kts
18-Jun-22 13:48 36.073598 -115.129604 266 2059ft 140kts
18-Jun-22 13:49 36.075699 -115.146594 352 2104ft 14kts
18-Jun-22 13:50 36.079239 -115.147474 338 2100ft 13kts
18-Jun-22 13:51 36.079930 -115.147033 66 2096ft 0kts
18-Jun-22 13:52 36.079930 -115.147033 66 2096ft 0kts

Navigation Log

Ident Type
Flight plan parsing failed, navigation log unavailable